createdAt,value
2022-09-22T00:04:36.827Z,3.00
2022-09-22T00:09:40.025Z,3.30
2022-09-22T00:14:43.481Z,3.40
2022-09-22T00:19:49.663Z,5.57
2022-09-22T00:24:53.450Z,3.70
2022-09-22T00:29:56.741Z,4.73
2022-09-22T00:34:59.895Z,3.13
2022-09-22T00:40:03.766Z,4.07
2022-09-22T00:45:07.384Z,5.37
2022-09-22T00:50:25.302Z,4.53
2022-09-22T00:55:45.477Z,5.93
2022-09-22T01:00:49.132Z,6.43
2022-09-22T01:05:56.545Z,7.13
2022-09-22T01:11:00.816Z,4.63
2022-09-22T01:16:34.738Z,4.37
2022-09-22T01:22:07.758Z,2.57
2022-09-22T01:27:54.698Z,4.17
2022-09-22T01:33:37.395Z,3.10
2022-09-22T01:39:05.361Z,4.33
2022-09-22T01:44:17.316Z,3.17
2022-09-22T01:49:27.377Z,3.17
2022-09-22T01:54:56.055Z,3.93
2022-09-22T02:00:06.458Z,3.80
2022-09-22T02:05:15.864Z,5.33
2022-09-22T02:10:25.458Z,3.60
2022-09-22T02:15:48.319Z,5.23
2022-09-22T02:20:52.068Z,5.47
2022-09-22T02:25:56.383Z,4.17
2022-09-22T02:31:19.412Z,4.13
2022-09-22T02:36:41.724Z,5.30
2022-09-22T02:42:18.375Z,3.73
2022-09-22T02:47:37.344Z,3.87
2022-09-22T02:52:41.395Z,3.97
2022-09-22T02:57:45.077Z,4.10
2022-09-22T03:02:48.277Z,3.10
2022-09-22T03:07:51.880Z,3.63
2022-09-22T03:13:15.463Z,2.47
2022-09-22T03:18:18.298Z,2.97
2022-09-22T03:23:22.146Z,5.20
2022-09-22T03:28:25.226Z,4.10
2022-09-22T03:33:28.268Z,5.83
2022-09-22T03:38:31.707Z,3.67
2022-09-22T03:43:35.077Z,2.43
2022-09-22T03:48:42.851Z,5.57
2022-09-22T03:53:48.213Z,6.57
2022-09-22T03:58:51.497Z,3.23
2022-09-22T04:03:54.743Z,5.33
2022-09-22T04:08:57.960Z,4.13
2022-09-22T04:14:02.035Z,5.07
2022-09-22T04:19:05.574Z,3.07
2022-09-22T04:24:09.814Z,5.20
2022-09-22T04:29:13.042Z,3.03
2022-09-22T04:34:16.306Z,4.00
2022-09-22T04:39:23.657Z,2.30
2022-09-22T04:44:27.364Z,4.00
2022-09-22T04:49:30.774Z,3.57
2022-09-22T04:54:34.045Z,3.27
2022-09-22T04:59:37.402Z,4.37
2022-09-22T05:04:40.584Z,2.50
2022-09-22T05:09:43.784Z,3.77
2022-09-22T05:14:47.055Z,4.43
2022-09-22T05:19:50.322Z,3.80
2022-09-22T05:24:53.364Z,4.90
2022-09-22T05:29:56.254Z,4.10
2022-09-22T05:34:59.532Z,2.87
2022-09-22T05:40:03.560Z,2.67
2022-09-22T05:45:07.158Z,4.93
2022-09-22T05:50:12.349Z,3.47
2022-09-22T05:55:15.799Z,3.77
2022-09-22T06:00:18.824Z,3.07
2022-09-22T06:05:22.144Z,5.00
2022-09-22T06:10:25.246Z,4.03
2022-09-22T06:15:29.338Z,4.17
2022-09-22T06:20:32.493Z,3.17
2022-09-22T06:25:35.418Z,2.83
2022-09-22T06:30:42.169Z,4.50
2022-09-22T06:35:46.744Z,5.70
2022-09-22T06:40:51.396Z,5.17
2022-09-22T06:45:54.399Z,4.20
2022-09-22T06:50:57.494Z,2.83
2022-09-22T06:56:03.814Z,3.17
2022-09-22T07:01:09.857Z,4.87
2022-09-22T07:06:20.386Z,5.73
2022-09-22T07:11:26.072Z,2.67
2022-09-22T07:16:29.238Z,4.27
2022-09-22T07:21:38.793Z,3.67
2022-09-22T07:26:43.924Z,3.57
2022-09-22T07:31:47.194Z,2.87
2022-09-22T07:36:53.004Z,3.33
2022-09-22T07:41:56.132Z,3.40
2022-09-22T07:46:59.906Z,4.57
2022-09-22T07:52:04.273Z,4.17
2022-09-22T07:57:10.121Z,3.97
2022-09-22T08:02:13.575Z,3.90
2022-09-22T08:07:16.682Z,3.70
2022-09-22T08:12:21.046Z,3.63
2022-09-22T08:17:24.882Z,2.43
2022-09-22T08:22:28.183Z,4.17
2022-09-22T08:27:31.495Z,3.80
2022-09-22T08:32:37.040Z,2.57
2022-09-22T08:37:42.330Z,2.33
2022-09-22T08:42:46.174Z,2.40
2022-09-22T08:48:12.885Z,4.10
2022-09-22T08:53:20.297Z,2.07
2022-09-22T08:58:47.743Z,2.53
2022-09-22T09:04:12.685Z,4.27
2022-09-22T09:09:24.163Z,3.30
2022-09-22T09:14:49.365Z,2.13
2022-09-22T09:20:24.308Z,3.37
2022-09-22T09:25:37.467Z,1.67
2022-09-22T09:30:57.385Z,2.37
2022-09-22T09:36:02.418Z,3.40
2022-09-22T09:41:23.366Z,3.00
2022-09-22T09:46:33.456Z,3.77
2022-09-22T09:51:40.660Z,2.27
2022-09-22T09:57:31.011Z,1.63
2022-09-22T10:02:48.644Z,2.83
2022-09-22T10:08:01.317Z,3.30
2022-09-22T10:13:07.503Z,4.67
2022-09-22T10:18:40.832Z,1.40
2022-09-22T10:23:48.540Z,1.97
2022-09-22T10:29:07.365Z,1.87
2022-09-22T10:34:37.206Z,2.63
2022-09-22T10:39:48.348Z,1.10
2022-09-22T10:44:52.954Z,3.90
2022-09-22T10:50:32.696Z,2.70
2022-09-22T10:55:48.850Z,1.73
2022-09-22T11:01:00.359Z,1.30
2022-09-22T11:06:42.365Z,1.10
2022-09-22T11:12:36.065Z,1.40
2022-09-22T11:18:02.435Z,1.03
2022-09-22T11:23:42.563Z,2.40
2022-09-22T11:28:46.005Z,1.27
2022-09-22T11:34:24.393Z,1.00
2022-09-22T11:39:46.286Z,1.87
2022-09-22T11:44:52.240Z,1.60
2022-09-22T11:50:13.005Z,2.40
2022-09-22T11:55:24.452Z,1.40
2022-09-22T12:00:34.180Z,1.77
2022-09-22T12:06:00.783Z,2.00
2022-09-22T12:11:08.474Z,3.20
2022-09-22T12:16:51.207Z,0.60
2022-09-22T12:22:11.585Z,2.90
2022-09-22T12:27:29.435Z,2.37
2022-09-22T12:32:38.514Z,8.30
2022-09-22T12:37:41.784Z,1.40
2022-09-22T12:42:50.165Z,0.53
2022-09-22T12:47:57.014Z,1.77
2022-09-22T12:53:04.575Z,1.43
2022-09-22T12:58:30.293Z,1.23
2022-09-22T13:03:52.477Z,0.70
2022-09-22T13:08:55.520Z,0.83
2022-09-22T13:13:58.718Z,0.17
2022-09-22T13:19:03.316Z,1.00
2022-09-22T13:24:08.132Z,0.77
2022-09-22T13:29:23.308Z,1.37
2022-09-22T13:34:29.742Z,1.23
2022-09-22T13:39:36.916Z,1.10
2022-09-22T13:44:44.345Z,0.33
2022-09-22T13:49:53.740Z,1.10
2022-09-22T13:55:06.815Z,1.20
2022-09-22T14:00:29.452Z,1.97
2022-09-22T14:05:36.441Z,1.63
2022-09-22T14:10:41.968Z,1.40
2022-09-22T14:15:45.670Z,1.70
2022-09-22T14:20:49.038Z,1.90
2022-09-22T14:25:52.969Z,2.00
2022-09-22T14:30:56.318Z,2.40
2022-09-22T14:36:02.862Z,2.17
2022-09-22T14:41:22.928Z,1.30
2022-09-22T14:46:37.166Z,1.00
2022-09-22T14:51:46.323Z,0.97
2022-09-22T14:56:51.317Z,2.57
2022-09-22T15:02:20.484Z,1.40
2022-09-22T15:07:30.336Z,2.93
2022-09-22T15:12:41.196Z,2.10
2022-09-22T15:18:06.009Z,0.77
2022-09-22T15:23:26.270Z,3.23
2022-09-22T15:28:29.240Z,0.87
2022-09-22T15:33:32.892Z,0.53
2022-09-22T15:38:39.529Z,0.37
2022-09-22T15:43:44.626Z,1.03
2022-09-22T15:48:49.673Z,1.33
2022-09-22T15:53:53.698Z,1.30
2022-09-22T15:59:01.714Z,1.60
2022-09-22T16:04:04.898Z,1.57
2022-09-22T16:09:08.667Z,2.43
2022-09-22T16:14:12.460Z,1.10
2022-09-22T16:19:16.807Z,2.23
2022-09-22T16:24:20.410Z,5.33
2022-09-22T16:29:26.475Z,2.03
2022-09-22T16:34:30.274Z,1.63
2022-09-22T16:39:33.262Z,2.30
2022-09-22T16:44:36.925Z,1.20
2022-09-22T16:49:43.803Z,5.03
2022-09-22T16:54:47.376Z,1.80
2022-09-22T16:59:51.095Z,1.50
2022-09-22T17:04:54.904Z,1.40
2022-09-22T17:09:58.412Z,1.47
2022-09-22T17:15:02.108Z,2.63
2022-09-22T17:20:05.619Z,2.57
2022-09-22T17:25:11.466Z,4.50
2022-09-22T17:30:16.891Z,5.83
2022-09-22T17:35:20.026Z,5.77
2022-09-22T17:40:23.077Z,7.07
2022-09-22T17:45:26.427Z,4.37
2022-09-22T17:50:48.623Z,4.07
2022-09-22T17:55:53.485Z,2.23
2022-09-22T18:00:56.667Z,2.80
2022-09-22T18:06:00.591Z,3.57
2022-09-22T18:11:05.131Z,4.03
2022-09-22T18:16:23.125Z,4.13
2022-09-22T18:21:27.918Z,5.27
2022-09-22T18:26:33.186Z,7.43
2022-09-22T18:31:37.618Z,6.37
2022-09-22T18:36:41.424Z,9.70
2022-09-22T18:41:45.104Z,7.87
2022-09-22T18:46:56.735Z,10.63
2022-09-22T18:52:05.034Z,8.47
2022-09-22T18:57:26.520Z,7.13
2022-09-22T19:02:30.789Z,5.87
2022-09-22T19:07:42.071Z,6.40
2022-09-22T19:12:51.237Z,7.37
2022-09-22T19:17:55.698Z,5.03
2022-09-22T19:23:00.407Z,6.37
2022-09-22T19:28:04.893Z,6.50
2022-09-22T19:33:08.984Z,6.07
2022-09-22T19:38:13.926Z,4.83
2022-09-22T19:43:18.268Z,5.87
2022-09-22T19:48:22.983Z,6.57
2022-09-22T19:53:26.308Z,7.27
2022-09-22T19:58:30.001Z,6.70
2022-09-22T20:03:33.025Z,6.43
2022-09-22T20:14:52.215Z,6.87
2022-09-22T20:20:00.974Z,8.20
2022-09-22T20:25:05.478Z,8.97
2022-09-22T20:30:09.574Z,8.37
2022-09-22T20:48:45.864Z,9.83
2022-09-22T20:53:49.040Z,9.70
2022-09-22T20:58:53.864Z,8.77
2022-09-22T21:03:57.378Z,10.50
2022-09-22T21:09:18.904Z,12.20
2022-09-22T21:14:22.723Z,10.60
2022-09-22T21:19:25.832Z,11.20
2022-09-22T21:24:30.092Z,7.30
2022-09-22T21:29:33.415Z,7.47
2022-09-22T21:34:37.084Z,9.00
2022-09-22T21:39:40.027Z,11.17
2022-09-22T21:44:43.163Z,8.47
2022-09-22T21:49:46.404Z,10.80
2022-09-22T21:54:51.319Z,13.20
2022-09-22T21:59:56.760Z,9.23
2022-09-22T22:04:59.978Z,7.83
2022-09-22T22:10:03.521Z,7.07
2022-09-22T22:15:07.343Z,5.37
2022-09-22T22:20:10.931Z,11.17
2022-09-22T22:25:17.817Z,9.20
2022-09-22T22:30:21.045Z,10.30
2022-09-22T22:35:24.497Z,7.37
2022-09-22T22:40:27.425Z,9.00
2022-09-22T22:45:30.658Z,11.00
2022-09-22T22:50:33.959Z,9.60
2022-09-22T22:55:37.854Z,12.57
2022-09-22T23:00:41.014Z,8.67
2022-09-22T23:05:44.434Z,7.57
2022-09-22T23:10:47.600Z,10.87
2022-09-22T23:15:51.880Z,9.27
2022-09-22T23:20:56.786Z,8.73
2022-09-22T23:25:59.998Z,8.77
2022-09-22T23:31:04.196Z,10.93
2022-09-22T23:36:09.258Z,10.67
2022-09-22T23:41:13.426Z,14.97
2022-09-22T23:46:17.172Z,15.50
2022-09-22T23:51:20.406Z,13.67
2022-09-22T23:56:23.799Z,15.97
